sensor_id;sensor_type;location;lat;lon;timestamp;P1;durP1;ratioP1;P2;durP2;ratioP2
9128;SDS011;4599;50.906;6.786;2023-03-03T00:02:07;30.43;;;20.03;;
9128;SDS011;4599;50.906;6.786;2023-03-03T00:06:11;29.77;;;19.07;;
9128;SDS011;4599;50.906;6.786;2023-03-03T00:10:14;31.07;;;19.43;;
9128;SDS011;4599;50.906;6.786;2023-03-03T00:14:17;28.80;;;19.23;;
9128;SDS011;4599;50.906;6.786;2023-03-03T00:18:29;30.10;;;19.23;;
9128;SDS011;4599;50.906;6.786;2023-03-03T00:22:35;28.37;;;19.77;;
9128;SDS011;4599;50.906;6.786;2023-03-03T00:26:38;29.40;;;20.87;;
9128;SDS011;4599;50.906;6.786;2023-03-03T00:30:41;33.00;;;21.70;;
9128;SDS011;4599;50.906;6.786;2023-03-03T00:34:42;33.07;;;21.30;;
9128;SDS011;4599;50.906;6.786;2023-03-03T00:38:46;35.07;;;22.23;;
9128;SDS011;4599;50.906;6.786;2023-03-03T00:42:49;31.97;;;21.60;;
9128;SDS011;4599;50.906;6.786;2023-03-03T00:46:52;33.10;;;21.93;;
9128;SDS011;4599;50.906;6.786;2023-03-03T00:50:54;35.13;;;23.00;;
9128;SDS011;4599;50.906;6.786;2023-03-03T00:54:58;35.67;;;22.53;;
9128;SDS011;4599;50.906;6.786;2023-03-03T00:58:59;33.10;;;22.07;;
9128;SDS011;4599;50.906;6.786;2023-03-03T01:03:02;33.57;;;21.80;;
9128;SDS011;4599;50.906;6.786;2023-03-03T01:07:04;34.57;;;21.63;;
9128;SDS011;4599;50.906;6.786;2023-03-03T01:11:08;34.23;;;22.30;;
9128;SDS011;4599;50.906;6.786;2023-03-03T01:15:13;36.37;;;23.13;;
9128;SDS011;4599;50.906;6.786;2023-03-03T01:19:15;36.67;;;22.90;;
9128;SDS011;4599;50.906;6.786;2023-03-03T01:23:17;34.70;;;22.13;;
9128;SDS011;4599;50.906;6.786;2023-03-03T01:27:20;35.37;;;23.10;;
9128;SDS011;4599;50.906;6.786;2023-03-03T01:31:21;38.33;;;23.43;;
9128;SDS011;4599;50.906;6.786;2023-03-03T01:35:23;40.87;;;24.03;;
9128;SDS011;4599;50.906;6.786;2023-03-03T01:39:25;40.67;;;23.63;;
9128;SDS011;4599;50.906;6.786;2023-03-03T01:43:28;38.10;;;24.47;;
9128;SDS011;4599;50.906;6.786;2023-03-03T01:47:31;39.47;;;23.70;;
9128;SDS011;4599;50.906;6.786;2023-03-03T01:51:35;39.47;;;24.83;;
9128;SDS011;4599;50.906;6.786;2023-03-03T01:55:43;44.70;;;26.63;;
9128;SDS011;4599;50.906;6.786;2023-03-03T01:59:48;44.83;;;26.57;;
9128;SDS011;4599;50.906;6.786;2023-03-03T02:03:51;44.60;;;25.73;;
9128;SDS011;4599;50.906;6.786;2023-03-03T02:07:52;41.43;;;26.33;;
9128;SDS011;4599;50.906;6.786;2023-03-03T02:11:56;42.67;;;26.07;;
9128;SDS011;4599;50.906;6.786;2023-03-03T02:16:01;45.40;;;25.60;;
9128;SDS011;4599;50.906;6.786;2023-03-03T02:20:04;48.03;;;25.77;;
9128;SDS011;4599;50.906;6.786;2023-03-03T02:24:13;41.30;;;24.77;;
9128;SDS011;4599;50.906;6.786;2023-03-03T02:28:22;46.70;;;27.50;;
9128;SDS011;4599;50.906;6.786;2023-03-03T02:32:25;51.30;;;27.50;;
9128;SDS011;4599;50.906;6.786;2023-03-03T02:36:27;49.30;;;28.47;;
9128;SDS011;4599;50.906;6.786;2023-03-03T02:40:30;53.20;;;29.37;;
9128;SDS011;4599;50.906;6.786;2023-03-03T02:44:38;51.77;;;29.37;;
9128;SDS011;4599;50.906;6.786;2023-03-03T02:48:39;49.57;;;28.87;;
9128;SDS011;4599;50.906;6.786;2023-03-03T02:52:41;52.10;;;30.03;;
9128;SDS011;4599;50.906;6.786;2023-03-03T02:56:42;50.50;;;29.37;;
9128;SDS011;4599;50.906;6.786;2023-03-03T03:00:45;58.37;;;29.97;;
9128;SDS011;4599;50.906;6.786;2023-03-03T03:04:46;52.70;;;29.53;;
9128;SDS011;4599;50.906;6.786;2023-03-03T03:08:48;50.80;;;29.37;;
9128;SDS011;4599;50.906;6.786;2023-03-03T03:12:52;52.77;;;28.97;;
9128;SDS011;4599;50.906;6.786;2023-03-03T03:16:55;54.57;;;29.33;;
9128;SDS011;4599;50.906;6.786;2023-03-03T03:21:04;50.43;;;28.50;;
9128;SDS011;4599;50.906;6.786;2023-03-03T03:25:06;50.27;;;29.53;;
9128;SDS011;4599;50.906;6.786;2023-03-03T03:29:08;51.43;;;29.10;;
9128;SDS011;4599;50.906;6.786;2023-03-03T03:33:11;50.13;;;27.83;;
9128;SDS011;4599;50.906;6.786;2023-03-03T03:37:13;50.13;;;28.73;;
9128;SDS011;4599;50.906;6.786;2023-03-03T03:41:14;50.40;;;28.63;;
9128;SDS011;4599;50.906;6.786;2023-03-03T03:45:16;53.63;;;29.90;;
9128;SDS011;4599;50.906;6.786;2023-03-03T03:49:19;51.40;;;28.80;;
9128;SDS011;4599;50.906;6.786;2023-03-03T03:53:21;49.37;;;27.17;;
9128;SDS011;4599;50.906;6.786;2023-03-03T03:57:22;49.60;;;28.33;;
9128;SDS011;4599;50.906;6.786;2023-03-03T04:01:26;51.30;;;28.50;;
9128;SDS011;4599;50.906;6.786;2023-03-03T04:05:29;48.57;;;27.67;;
9128;SDS011;4599;50.906;6.786;2023-03-03T04:09:31;47.77;;;27.73;;
9128;SDS011;4599;50.906;6.786;2023-03-03T04:13:33;49.00;;;27.87;;
9128;SDS011;4599;50.906;6.786;2023-03-03T04:17:35;51.97;;;28.90;;
9128;SDS011;4599;50.906;6.786;2023-03-03T04:21:38;49.37;;;28.93;;
9128;SDS011;4599;50.906;6.786;2023-03-03T04:25:39;49.97;;;27.70;;
9128;SDS011;4599;50.906;6.786;2023-03-03T04:29:40;45.40;;;27.63;;
9128;SDS011;4599;50.906;6.786;2023-03-03T04:33:42;47.50;;;27.33;;
9128;SDS011;4599;50.906;6.786;2023-03-03T04:37:45;45.67;;;26.63;;
9128;SDS011;4599;50.906;6.786;2023-03-03T04:41:46;44.23;;;26.00;;
9128;SDS011;4599;50.906;6.786;2023-03-03T04:45:48;43.43;;;26.07;;
9128;SDS011;4599;50.906;6.786;2023-03-03T04:49:49;45.67;;;25.70;;
9128;SDS011;4599;50.906;6.786;2023-03-03T04:53:52;42.10;;;25.37;;
9128;SDS011;4599;50.906;6.786;2023-03-03T04:57:53;43.23;;;26.03;;
9128;SDS011;4599;50.906;6.786;2023-03-03T05:01:55;46.00;;;26.23;;
9128;SDS011;4599;50.906;6.786;2023-03-03T05:05:56;47.67;;;26.77;;
9128;SDS011;4599;50.906;6.786;2023-03-03T05:09:59;47.33;;;25.80;;
9128;SDS011;4599;50.906;6.786;2023-03-03T05:14:00;45.07;;;26.23;;
9128;SDS011;4599;50.906;6.786;2023-03-03T05:18:02;47.77;;;25.67;;
9128;SDS011;4599;50.906;6.786;2023-03-03T05:22:04;46.23;;;26.60;;
9128;SDS011;4599;50.906;6.786;2023-03-03T05:26:07;47.47;;;26.50;;
9128;SDS011;4599;50.906;6.786;2023-03-03T05:30:09;46.63;;;27.27;;
9128;SDS011;4599;50.906;6.786;2023-03-03T05:34:11;46.93;;;26.60;;
9128;SDS011;4599;50.906;6.786;2023-03-03T05:38:12;46.73;;;27.90;;
9128;SDS011;4599;50.906;6.786;2023-03-03T05:42:15;44.93;;;25.97;;
9128;SDS011;4599;50.906;6.786;2023-03-03T05:46:17;51.30;;;26.70;;
9128;SDS011;4599;50.906;6.786;2023-03-03T05:50:18;41.37;;;24.53;;
9128;SDS011;4599;50.906;6.786;2023-03-03T05:54:21;42.03;;;24.20;;
9128;SDS011;4599;50.906;6.786;2023-03-03T05:58:24;39.43;;;23.10;;
9128;SDS011;4599;50.906;6.786;2023-03-03T06:02:26;40.10;;;22.53;;
9128;SDS011;4599;50.906;6.786;2023-03-03T06:06:27;43.60;;;24.27;;
9128;SDS011;4599;50.906;6.786;2023-03-03T06:10:29;42.73;;;24.23;;
9128;SDS011;4599;50.906;6.786;2023-03-03T06:14:32;41.27;;;24.03;;
9128;SDS011;4599;50.906;6.786;2023-03-03T06:18:33;39.00;;;23.00;;
9128;SDS011;4599;50.906;6.786;2023-03-03T06:22:34;38.83;;;22.73;;
9128;SDS011;4599;50.906;6.786;2023-03-03T06:26:36;40.90;;;22.73;;
9128;SDS011;4599;50.906;6.786;2023-03-03T06:30:39;35.20;;;21.57;;
9128;SDS011;4599;50.906;6.786;2023-03-03T06:34:40;37.57;;;22.00;;
9128;SDS011;4599;50.906;6.786;2023-03-03T06:38:42;39.33;;;22.87;;
9128;SDS011;4599;50.906;6.786;2023-03-03T06:42:43;40.43;;;22.03;;
9128;SDS011;4599;50.906;6.786;2023-03-03T06:46:46;36.47;;;21.93;;
9128;SDS011;4599;50.906;6.786;2023-03-03T06:50:48;38.77;;;22.77;;
9128;SDS011;4599;50.906;6.786;2023-03-03T06:54:49;37.60;;;22.13;;
9128;SDS011;4599;50.906;6.786;2023-03-03T06:58:53;41.43;;;22.27;;
9128;SDS011;4599;50.906;6.786;2023-03-03T07:02:58;36.60;;;21.77;;
9128;SDS011;4599;50.906;6.786;2023-03-03T07:07:06;37.77;;;22.27;;
9128;SDS011;4599;50.906;6.786;2023-03-03T07:11:11;36.90;;;21.67;;
9128;SDS011;4599;50.906;6.786;2023-03-03T07:15:19;35.87;;;22.23;;
9128;SDS011;4599;50.906;6.786;2023-03-03T07:19:29;36.30;;;21.73;;
9128;SDS011;4599;50.906;6.786;2023-03-03T07:23:34;35.10;;;20.83;;
9128;SDS011;4599;50.906;6.786;2023-03-03T07:27:38;39.20;;;22.53;;
9128;SDS011;4599;50.906;6.786;2023-03-03T07:31:40;36.23;;;21.60;;
9128;SDS011;4599;50.906;6.786;2023-03-03T07:35:47;33.93;;;21.63;;
9128;SDS011;4599;50.906;6.786;2023-03-03T07:39:49;38.60;;;21.57;;
9128;SDS011;4599;50.906;6.786;2023-03-03T07:43:51;39.97;;;24.03;;
9128;SDS011;4599;50.906;6.786;2023-03-03T07:47:54;40.67;;;22.43;;
9128;SDS011;4599;50.906;6.786;2023-03-03T07:52:15;37.57;;;21.67;;
9128;SDS011;4599;50.906;6.786;2023-03-03T07:56:28;40.00;;;22.00;;
9128;SDS011;4599;50.906;6.786;2023-03-03T08:05:23;36.00;;;21.70;;
9128;SDS011;4599;50.906;6.786;2023-03-03T08:13:50;37.93;;;20.93;;
9128;SDS011;4599;50.906;6.786;2023-03-03T08:17:52;38.37;;;21.80;;
9128;SDS011;4599;50.906;6.786;2023-03-03T08:21:55;39.90;;;21.40;;
9128;SDS011;4599;50.906;6.786;2023-03-03T08:26:02;35.07;;;20.80;;
9128;SDS011;4599;50.906;6.786;2023-03-03T08:30:03;34.67;;;20.47;;
9128;SDS011;4599;50.906;6.786;2023-03-03T08:34:05;34.67;;;20.73;;
9128;SDS011;4599;50.906;6.786;2023-03-03T08:38:07;35.40;;;19.33;;
9128;SDS011;4599;50.906;6.786;2023-03-03T08:42:11;35.47;;;20.17;;
9128;SDS011;4599;50.906;6.786;2023-03-03T08:46:16;39.43;;;21.23;;
9128;SDS011;4599;50.906;6.786;2023-03-03T08:50:17;37.77;;;22.50;;
9128;SDS011;4599;50.906;6.786;2023-03-03T08:54:22;40.67;;;22.63;;
9128;SDS011;4599;50.906;6.786;2023-03-03T08:58:24;42.93;;;23.87;;
9128;SDS011;4599;50.906;6.786;2023-03-03T09:02:36;37.43;;;21.63;;
9128;SDS011;4599;50.906;6.786;2023-03-03T09:06:37;41.93;;;22.93;;
9128;SDS011;4599;50.906;6.786;2023-03-03T09:10:39;39.87;;;21.00;;
9128;SDS011;4599;50.906;6.786;2023-03-03T09:14:42;39.87;;;21.70;;
9128;SDS011;4599;50.906;6.786;2023-03-03T09:18:43;37.07;;;21.70;;
9128;SDS011;4599;50.906;6.786;2023-03-03T09:22:45;34.53;;;20.17;;
9128;SDS011;4599;50.906;6.786;2023-03-03T09:26:46;36.30;;;21.33;;
9128;SDS011;4599;50.906;6.786;2023-03-03T09:30:50;32.83;;;20.30;;
9128;SDS011;4599;50.906;6.786;2023-03-03T09:34:52;37.97;;;21.60;;
9128;SDS011;4599;50.906;6.786;2023-03-03T09:38:54;33.37;;;20.50;;
9128;SDS011;4599;50.906;6.786;2023-03-03T09:42:58;32.47;;;19.90;;
9128;SDS011;4599;50.906;6.786;2023-03-03T09:47:16;38.03;;;20.87;;
9128;SDS011;4599;50.906;6.786;2023-03-03T09:51:36;32.97;;;19.43;;
9128;SDS011;4599;50.906;6.786;2023-03-03T09:55:56;33.87;;;19.50;;
9128;SDS011;4599;50.906;6.786;2023-03-03T10:00:08;34.90;;;19.73;;
9128;SDS011;4599;50.906;6.786;2023-03-03T10:09:07;35.83;;;20.00;;
9128;SDS011;4599;50.906;6.786;2023-03-03T10:13:25;35.40;;;19.97;;
9128;SDS011;4599;50.906;6.786;2023-03-03T10:17:40;39.67;;;20.63;;
9128;SDS011;4599;50.906;6.786;2023-03-03T10:21:52;41.43;;;20.23;;
9128;SDS011;4599;50.906;6.786;2023-03-03T10:26:02;34.03;;;20.03;;
9128;SDS011;4599;50.906;6.786;2023-03-03T10:30:17;34.33;;;19.37;;
9128;SDS011;4599;50.906;6.786;2023-03-03T10:34:51;32.13;;;19.63;;
9128;SDS011;4599;50.906;6.786;2023-03-03T10:39:09;34.73;;;19.40;;
9128;SDS011;4599;50.906;6.786;2023-03-03T10:43:24;33.83;;;19.20;;
9128;SDS011;4599;50.906;6.786;2023-03-03T10:47:41;34.93;;;19.30;;
9128;SDS011;4599;50.906;6.786;2023-03-03T10:51:54;36.10;;;20.63;;
9128;SDS011;4599;50.906;6.786;2023-03-03T10:56:23;38.87;;;21.03;;
9128;SDS011;4599;50.906;6.786;2023-03-03T11:00:51;36.37;;;20.40;;
9128;SDS011;4599;50.906;6.786;2023-03-03T11:05:04;41.03;;;21.13;;
9128;SDS011;4599;50.906;6.786;2023-03-03T11:09:32;47.93;;;23.17;;
9128;SDS011;4599;50.906;6.786;2023-03-03T11:13:43;42.83;;;21.70;;
9128;SDS011;4599;50.906;6.786;2023-03-03T11:18:02;43.03;;;22.47;;
9128;SDS011;4599;50.906;6.786;2023-03-03T11:22:21;42.07;;;22.73;;
9128;SDS011;4599;50.906;6.786;2023-03-03T11:26:49;43.50;;;21.43;;
9128;SDS011;4599;50.906;6.786;2023-03-03T11:31:14;42.67;;;22.73;;
9128;SDS011;4599;50.906;6.786;2023-03-03T11:35:22;43.13;;;23.50;;
9128;SDS011;4599;50.906;6.786;2023-03-03T11:39:27;42.87;;;23.10;;
9128;SDS011;4599;50.906;6.786;2023-03-03T11:43:30;40.27;;;22.07;;
9128;SDS011;4599;50.906;6.786;2023-03-03T11:47:40;39.73;;;21.70;;
9128;SDS011;4599;50.906;6.786;2023-03-03T11:51:52;42.53;;;22.83;;
9128;SDS011;4599;50.906;6.786;2023-03-03T11:56:03;49.87;;;23.10;;
9128;SDS011;4599;50.906;6.786;2023-03-03T12:00:21;40.67;;;21.23;;
9128;SDS011;4599;50.906;6.786;2023-03-03T12:04:30;41.77;;;22.67;;
9128;SDS011;4599;50.906;6.786;2023-03-03T12:08:40;40.23;;;21.60;;
9128;SDS011;4599;50.906;6.786;2023-03-03T12:12:59;41.30;;;21.97;;
9128;SDS011;4599;50.906;6.786;2023-03-03T12:17:03;42.53;;;22.00;;
9128;SDS011;4599;50.906;6.786;2023-03-03T12:21:19;41.10;;;22.83;;
9128;SDS011;4599;50.906;6.786;2023-03-03T12:25:48;43.77;;;22.93;;
9128;SDS011;4599;50.906;6.786;2023-03-03T12:30:00;39.40;;;22.33;;
9128;SDS011;4599;50.906;6.786;2023-03-03T12:34:13;39.87;;;21.13;;
9128;SDS011;4599;50.906;6.786;2023-03-03T12:38:25;38.30;;;20.83;;
9128;SDS011;4599;50.906;6.786;2023-03-03T12:42:38;48.47;;;22.27;;
9128;SDS011;4599;50.906;6.786;2023-03-03T12:46:51;44.90;;;23.23;;
9128;SDS011;4599;50.906;6.786;2023-03-03T12:51:00;41.23;;;23.00;;
9128;SDS011;4599;50.906;6.786;2023-03-03T12:55:13;38.60;;;22.00;;
9128;SDS011;4599;50.906;6.786;2023-03-03T12:59:24;39.23;;;20.43;;
9128;SDS011;4599;50.906;6.786;2023-03-03T13:03:35;39.57;;;20.93;;
9128;SDS011;4599;50.906;6.786;2023-03-03T13:08:02;41.43;;;22.40;;
9128;SDS011;4599;50.906;6.786;2023-03-03T13:12:21;46.37;;;22.00;;
9128;SDS011;4599;50.906;6.786;2023-03-03T13:16:32;40.77;;;22.50;;
9128;SDS011;4599;50.906;6.786;2023-03-03T13:20:43;44.27;;;23.70;;
9128;SDS011;4599;50.906;6.786;2023-03-03T13:24:53;41.07;;;22.80;;
9128;SDS011;4599;50.906;6.786;2023-03-03T13:29:10;39.73;;;21.63;;
9128;SDS011;4599;50.906;6.786;2023-03-03T13:33:20;44.00;;;23.17;;
9128;SDS011;4599;50.906;6.786;2023-03-03T13:37:27;43.00;;;23.03;;
9128;SDS011;4599;50.906;6.786;2023-03-03T13:41:34;45.10;;;24.03;;
9128;SDS011;4599;50.906;6.786;2023-03-03T13:45:43;43.80;;;24.17;;
9128;SDS011;4599;50.906;6.786;2023-03-03T13:50:07;53.97;;;25.63;;
9128;SDS011;4599;50.906;6.786;2023-03-03T13:54:33;50.77;;;25.37;;
9128;SDS011;4599;50.906;6.786;2023-03-03T13:58:43;49.00;;;26.20;;
9128;SDS011;4599;50.906;6.786;2023-03-03T14:02:54;54.23;;;26.43;;
9128;SDS011;4599;50.906;6.786;2023-03-03T14:07:06;51.73;;;26.97;;
9128;SDS011;4599;50.906;6.786;2023-03-03T14:11:15;52.43;;;27.20;;
9128;SDS011;4599;50.906;6.786;2023-03-03T14:15:23;59.50;;;28.80;;
9128;SDS011;4599;50.906;6.786;2023-03-03T14:19:30;62.27;;;28.97;;
9128;SDS011;4599;50.906;6.786;2023-03-03T14:23:46;53.33;;;27.27;;
9128;SDS011;4599;50.906;6.786;2023-03-03T14:27:57;52.27;;;26.00;;
9128;SDS011;4599;50.906;6.786;2023-03-03T14:32:19;43.57;;;24.97;;
9128;SDS011;4599;50.906;6.786;2023-03-03T14:36:25;43.93;;;24.37;;
9128;SDS011;4599;50.906;6.786;2023-03-03T14:40:31;44.33;;;22.70;;
9128;SDS011;4599;50.906;6.786;2023-03-03T14:44:34;41.83;;;22.67;;
9128;SDS011;4599;50.906;6.786;2023-03-03T14:48:38;41.47;;;21.13;;
9128;SDS011;4599;50.906;6.786;2023-03-03T14:52:52;40.10;;;19.60;;
9128;SDS011;4599;50.906;6.786;2023-03-03T14:57:10;39.63;;;20.03;;
9128;SDS011;4599;50.906;6.786;2023-03-03T15:01:20;41.70;;;19.13;;
9128;SDS011;4599;50.906;6.786;2023-03-03T15:05:23;37.10;;;18.87;;
9128;SDS011;4599;50.906;6.786;2023-03-03T15:09:29;34.37;;;17.67;;
9128;SDS011;4599;50.906;6.786;2023-03-03T15:13:33;38.13;;;18.63;;
9128;SDS011;4599;50.906;6.786;2023-03-03T15:17:35;38.53;;;18.13;;
9128;SDS011;4599;50.906;6.786;2023-03-03T15:21:39;36.43;;;17.97;;
9128;SDS011;4599;50.906;6.786;2023-03-03T15:25:54;36.63;;;18.37;;
9128;SDS011;4599;50.906;6.786;2023-03-03T15:30:01;34.13;;;18.47;;
9128;SDS011;4599;50.906;6.786;2023-03-03T15:34:25;44.00;;;22.60;;
9128;SDS011;4599;50.906;6.786;2023-03-03T15:38:36;41.50;;;20.67;;
9128;SDS011;4599;50.906;6.786;2023-03-03T15:42:48;49.77;;;24.47;;
9128;SDS011;4599;50.906;6.786;2023-03-03T15:46:57;44.67;;;23.23;;
9128;SDS011;4599;50.906;6.786;2023-03-03T15:51:11;37.10;;;19.57;;
9128;SDS011;4599;50.906;6.786;2023-03-03T15:55:26;38.80;;;18.67;;
9128;SDS011;4599;50.906;6.786;2023-03-03T15:59:41;37.03;;;18.27;;
9128;SDS011;4599;50.906;6.786;2023-03-03T16:04:00;36.47;;;18.63;;
9128;SDS011;4599;50.906;6.786;2023-03-03T16:08:08;35.83;;;18.47;;
9128;SDS011;4599;50.906;6.786;2023-03-03T16:12:15;35.30;;;18.30;;
9128;SDS011;4599;50.906;6.786;2023-03-03T16:16:27;34.93;;;18.70;;
9128;SDS011;4599;50.906;6.786;2023-03-03T16:20:39;30.83;;;16.43;;
9128;SDS011;4599;50.906;6.786;2023-03-03T16:24:49;32.80;;;16.57;;
9128;SDS011;4599;50.906;6.786;2023-03-03T16:33:36;32.70;;;16.77;;
9128;SDS011;4599;50.906;6.786;2023-03-03T16:37:43;37.17;;;19.10;;
9128;SDS011;4599;50.906;6.786;2023-03-03T16:41:54;40.27;;;19.27;;
9128;SDS011;4599;50.906;6.786;2023-03-03T16:46:01;35.00;;;19.23;;
9128;SDS011;4599;50.906;6.786;2023-03-03T16:50:15;39.50;;;20.77;;
9128;SDS011;4599;50.906;6.786;2023-03-03T16:54:29;40.53;;;21.93;;
9128;SDS011;4599;50.906;6.786;2023-03-03T16:58:42;37.93;;;20.43;;
9128;SDS011;4599;50.906;6.786;2023-03-03T17:03:02;38.90;;;20.73;;
9128;SDS011;4599;50.906;6.786;2023-03-03T17:07:21;44.20;;;24.17;;
9128;SDS011;4599;50.906;6.786;2023-03-03T17:11:40;48.10;;;23.97;;
9128;SDS011;4599;50.906;6.786;2023-03-03T17:15:51;46.33;;;22.33;;
9128;SDS011;4599;50.906;6.786;2023-03-03T17:20:05;44.87;;;23.13;;
9128;SDS011;4599;50.906;6.786;2023-03-03T17:24:23;45.37;;;23.43;;
9128;SDS011;4599;50.906;6.786;2023-03-03T17:28:39;46.57;;;24.67;;
9128;SDS011;4599;50.906;6.786;2023-03-03T17:32:56;51.80;;;26.70;;
9128;SDS011;4599;50.906;6.786;2023-03-03T17:37:17;51.40;;;27.33;;
9128;SDS011;4599;50.906;6.786;2023-03-03T17:41:32;55.73;;;29.40;;
9128;SDS011;4599;50.906;6.786;2023-03-03T17:45:40;54.93;;;29.23;;
9128;SDS011;4599;50.906;6.786;2023-03-03T17:49:53;56.93;;;29.73;;
9128;SDS011;4599;50.906;6.786;2023-03-03T17:54:14;56.93;;;29.50;;
9128;SDS011;4599;50.906;6.786;2023-03-03T17:58:40;47.50;;;27.13;;
9128;SDS011;4599;50.906;6.786;2023-03-03T18:03:01;56.97;;;29.63;;
9128;SDS011;4599;50.906;6.786;2023-03-03T18:07:27;64.80;;;33.00;;
9128;SDS011;4599;50.906;6.786;2023-03-03T18:11:47;62.07;;;31.00;;
9128;SDS011;4599;50.906;6.786;2023-03-03T18:16:02;65.53;;;31.93;;
9128;SDS011;4599;50.906;6.786;2023-03-03T18:20:20;68.97;;;34.00;;
9128;SDS011;4599;50.906;6.786;2023-03-03T18:24:32;70.53;;;32.43;;
9128;SDS011;4599;50.906;6.786;2023-03-03T18:28:43;70.27;;;35.40;;
9128;SDS011;4599;50.906;6.786;2023-03-03T18:32:57;68.23;;;34.07;;
9128;SDS011;4599;50.906;6.786;2023-03-03T18:37:34;67.17;;;33.63;;
9128;SDS011;4599;50.906;6.786;2023-03-03T18:46:09;74.13;;;36.90;;
9128;SDS011;4599;50.906;6.786;2023-03-03T18:50:33;74.10;;;36.33;;
9128;SDS011;4599;50.906;6.786;2023-03-03T18:54:36;77.30;;;36.57;;
9128;SDS011;4599;50.906;6.786;2023-03-03T18:58:39;78.37;;;38.03;;
9128;SDS011;4599;50.906;6.786;2023-03-03T19:02:50;84.90;;;39.73;;
9128;SDS011;4599;50.906;6.786;2023-03-03T19:07:02;91.07;;;42.07;;
9128;SDS011;4599;50.906;6.786;2023-03-03T19:11:31;79.63;;;39.03;;
9128;SDS011;4599;50.906;6.786;2023-03-03T19:15:45;84.73;;;39.03;;
9128;SDS011;4599;50.906;6.786;2023-03-03T19:19:59;88.43;;;41.47;;
9128;SDS011;4599;50.906;6.786;2023-03-03T19:24:23;93.77;;;42.00;;
9128;SDS011;4599;50.906;6.786;2023-03-03T19:28:29;94.73;;;42.97;;
9128;SDS011;4599;50.906;6.786;2023-03-03T19:32:50;99.70;;;44.63;;
9128;SDS011;4599;50.906;6.786;2023-03-03T19:37:11;88.60;;;42.00;;
9128;SDS011;4599;50.906;6.786;2023-03-03T19:41:34;89.20;;;42.80;;
9128;SDS011;4599;50.906;6.786;2023-03-03T19:45:48;90.40;;;42.73;;
9128;SDS011;4599;50.906;6.786;2023-03-03T19:50:00;97.30;;;44.23;;
9128;SDS011;4599;50.906;6.786;2023-03-03T19:54:16;96.53;;;44.70;;
9128;SDS011;4599;50.906;6.786;2023-03-03T19:58:37;98.17;;;45.27;;
9128;SDS011;4599;50.906;6.786;2023-03-03T20:02:50;102.97;;;44.93;;
9128;SDS011;4599;50.906;6.786;2023-03-03T20:07:03;105.80;;;44.40;;
9128;SDS011;4599;50.906;6.786;2023-03-03T20:11:14;93.60;;;44.43;;
9128;SDS011;4599;50.906;6.786;2023-03-03T20:15:27;95.63;;;43.83;;
9128;SDS011;4599;50.906;6.786;2023-03-03T20:19:35;96.80;;;43.70;;
9128;SDS011;4599;50.906;6.786;2023-03-03T20:23:53;90.70;;;41.07;;
9128;SDS011;4599;50.906;6.786;2023-03-03T20:28:23;87.00;;;41.43;;
9128;SDS011;4599;50.906;6.786;2023-03-03T20:32:45;89.93;;;41.27;;
9128;SDS011;4599;50.906;6.786;2023-03-03T20:36:57;96.73;;;41.67;;
9128;SDS011;4599;50.906;6.786;2023-03-03T20:41:07;97.07;;;41.47;;
9128;SDS011;4599;50.906;6.786;2023-03-03T20:45:17;90.87;;;42.77;;
9128;SDS011;4599;50.906;6.786;2023-03-03T20:49:39;93.70;;;41.70;;
9128;SDS011;4599;50.906;6.786;2023-03-03T20:53:57;96.93;;;42.70;;
9128;SDS011;4599;50.906;6.786;2023-03-03T20:58:06;90.40;;;41.83;;
9128;SDS011;4599;50.906;6.786;2023-03-03T21:02:16;90.57;;;42.10;;
9128;SDS011;4599;50.906;6.786;2023-03-03T21:06:35;90.73;;;42.30;;
9128;SDS011;4599;50.906;6.786;2023-03-03T21:10:37;91.83;;;42.17;;
9128;SDS011;4599;50.906;6.786;2023-03-03T21:14:42;90.83;;;41.70;;
9128;SDS011;4599;50.906;6.786;2023-03-03T21:19:00;87.63;;;41.03;;
9128;SDS011;4599;50.906;6.786;2023-03-03T21:23:04;84.33;;;40.77;;
9128;SDS011;4599;50.906;6.786;2023-03-03T21:27:12;85.50;;;39.97;;
9128;SDS011;4599;50.906;6.786;2023-03-03T21:31:24;81.53;;;40.33;;
9128;SDS011;4599;50.906;6.786;2023-03-03T21:35:28;85.47;;;39.60;;
9128;SDS011;4599;50.906;6.786;2023-03-03T21:39:31;82.17;;;39.53;;
9128;SDS011;4599;50.906;6.786;2023-03-03T21:43:34;80.37;;;39.23;;
9128;SDS011;4599;50.906;6.786;2023-03-03T21:47:37;77.80;;;38.10;;
9128;SDS011;4599;50.906;6.786;2023-03-03T21:51:38;78.03;;;38.10;;
9128;SDS011;4599;50.906;6.786;2023-03-03T21:55:41;75.67;;;36.93;;
9128;SDS011;4599;50.906;6.786;2023-03-03T21:59:42;77.57;;;37.00;;
9128;SDS011;4599;50.906;6.786;2023-03-03T22:03:44;76.03;;;37.77;;
9128;SDS011;4599;50.906;6.786;2023-03-03T22:07:45;76.40;;;37.13;;
9128;SDS011;4599;50.906;6.786;2023-03-03T22:11:48;77.13;;;38.27;;
9128;SDS011;4599;50.906;6.786;2023-03-03T22:15:49;81.03;;;37.50;;
9128;SDS011;4599;50.906;6.786;2023-03-03T22:19:51;70.80;;;35.00;;
9128;SDS011;4599;50.906;6.786;2023-03-03T22:23:53;77.53;;;35.77;;
9128;SDS011;4599;50.906;6.786;2023-03-03T22:27:56;73.50;;;35.97;;
9128;SDS011;4599;50.906;6.786;2023-03-03T22:31:59;74.73;;;36.47;;
9128;SDS011;4599;50.906;6.786;2023-03-03T22:36:00;79.37;;;38.30;;
9128;SDS011;4599;50.906;6.786;2023-03-03T22:40:02;70.43;;;34.77;;
9128;SDS011;4599;50.906;6.786;2023-03-03T22:44:05;78.23;;;37.33;;
9128;SDS011;4599;50.906;6.786;2023-03-03T22:48:08;77.67;;;35.37;;
9128;SDS011;4599;50.906;6.786;2023-03-03T22:52:09;73.47;;;35.97;;
9128;SDS011;4599;50.906;6.786;2023-03-03T22:56:10;76.57;;;36.13;;
9128;SDS011;4599;50.906;6.786;2023-03-03T23:00:14;75.63;;;36.00;;
9128;SDS011;4599;50.906;6.786;2023-03-03T23:04:16;69.83;;;35.70;;
9128;SDS011;4599;50.906;6.786;2023-03-03T23:08:18;73.47;;;36.20;;
9128;SDS011;4599;50.906;6.786;2023-03-03T23:12:20;71.93;;;35.77;;
9128;SDS011;4599;50.906;6.786;2023-03-03T23:16:22;73.50;;;36.37;;
9128;SDS011;4599;50.906;6.786;2023-03-03T23:20:24;64.70;;;33.83;;
9128;SDS011;4599;50.906;6.786;2023-03-03T23:24:27;68.33;;;33.97;;
9128;SDS011;4599;50.906;6.786;2023-03-03T23:28:28;70.13;;;34.13;;
9128;SDS011;4599;50.906;6.786;2023-03-03T23:32:31;72.50;;;35.60;;
9128;SDS011;4599;50.906;6.786;2023-03-03T23:36:33;65.17;;;33.87;;
9128;SDS011;4599;50.906;6.786;2023-03-03T23:40:34;69.33;;;33.73;;
9128;SDS011;4599;50.906;6.786;2023-03-03T23:44:36;69.30;;;35.33;;
9128;SDS011;4599;50.906;6.786;2023-03-03T23:48:38;69.03;;;34.47;;
9128;SDS011;4599;50.906;6.786;2023-03-03T23:52:40;66.70;;;33.93;;
9128;SDS011;4599;50.906;6.786;2023-03-03T23:56:41;65.27;;;33.37;;
